Aviation Digital Data Service (ADDS)

Output produced by TAFs form (2110 UTC 20 October 2014)
found at http://www.aviationweather.gov/adds/tafs/
 
KPOU 201737Z 2018/2118 22006KT P6SM BKN130 
     FM202300 00000KT P6SM OVC100 
     FM211200 VRB05KT P6SM VCSH SCT025 OVC060